sensor_id;sensor_type;location;lat;lon;timestamp;P1;durP1;ratioP1;P2;durP2;ratioP2
1839;SDS011;920;48.944;9.148;2023-02-24T00:02:00;17.27;;;14.03;;
1839;SDS011;920;48.944;9.148;2023-02-24T00:04:38;17.37;;;13.40;;
1839;SDS011;920;48.944;9.148;2023-02-24T00:07:10;17.43;;;11.90;;
1839;SDS011;920;48.944;9.148;2023-02-24T00:09:48;16.40;;;13.23;;
1839;SDS011;920;48.944;9.148;2023-02-24T00:12:22;17.40;;;12.87;;
1839;SDS011;920;48.944;9.148;2023-02-24T00:14:59;16.70;;;13.00;;
1839;SDS011;920;48.944;9.148;2023-02-24T00:17:28;17.90;;;13.77;;
1839;SDS011;920;48.944;9.148;2023-02-24T00:19:59;14.77;;;13.20;;
1839;SDS011;920;48.944;9.148;2023-02-24T00:22:31;14.53;;;12.37;;
1839;SDS011;920;48.944;9.148;2023-02-24T00:25:00;17.33;;;13.43;;
1839;SDS011;920;48.944;9.148;2023-02-24T00:27:31;15.30;;;13.07;;
1839;SDS011;920;48.944;9.148;2023-02-24T00:30:03;13.97;;;12.47;;
1839;SDS011;920;48.944;9.148;2023-02-24T00:32:32;14.40;;;12.20;;
1839;SDS011;920;48.944;9.148;2023-02-24T00:35:08;16.53;;;11.50;;
1839;SDS011;920;48.944;9.148;2023-02-24T00:37:44;13.90;;;11.33;;
1839;SDS011;920;48.944;9.148;2023-02-24T00:40:19;17.73;;;11.97;;
1839;SDS011;920;48.944;9.148;2023-02-24T00:42:50;17.57;;;12.50;;
1839;SDS011;920;48.944;9.148;2023-02-24T00:45:19;16.57;;;12.40;;
1839;SDS011;920;48.944;9.148;2023-02-24T00:47:47;13.33;;;11.87;;
1839;SDS011;920;48.944;9.148;2023-02-24T00:50:15;14.47;;;11.30;;
1839;SDS011;920;48.944;9.148;2023-02-24T00:52:42;14.77;;;11.87;;
1839;SDS011;920;48.944;9.148;2023-02-24T00:55:13;15.27;;;12.40;;
1839;SDS011;920;48.944;9.148;2023-02-24T00:57:40;14.17;;;11.83;;
1839;SDS011;920;48.944;9.148;2023-02-24T01:00:09;14.80;;;11.63;;
1839;SDS011;920;48.944;9.148;2023-02-24T01:02:39;12.80;;;11.47;;
1839;SDS011;920;48.944;9.148;2023-02-24T01:05:09;14.37;;;11.60;;
1839;SDS011;920;48.944;9.148;2023-02-24T01:07:42;13.63;;;11.40;;
1839;SDS011;920;48.944;9.148;2023-02-24T01:10:12;14.17;;;12.10;;
1839;SDS011;920;48.944;9.148;2023-02-24T01:12:42;12.97;;;10.47;;
1839;SDS011;920;48.944;9.148;2023-02-24T01:15:19;14.97;;;11.13;;
1839;SDS011;920;48.944;9.148;2023-02-24T01:17:49;15.43;;;11.97;;
1839;SDS011;920;48.944;9.148;2023-02-24T01:20:18;16.57;;;12.50;;
1839;SDS011;920;48.944;9.148;2023-02-24T01:22:49;19.43;;;13.00;;
1839;SDS011;920;48.944;9.148;2023-02-24T01:25:28;15.50;;;12.70;;
1839;SDS011;920;48.944;9.148;2023-02-24T01:27:57;16.27;;;13.60;;
1839;SDS011;920;48.944;9.148;2023-02-24T01:30:29;17.13;;;13.47;;
1839;SDS011;920;48.944;9.148;2023-02-24T01:32:56;17.73;;;12.33;;
1839;SDS011;920;48.944;9.148;2023-02-24T01:35:24;15.03;;;11.70;;
1839;SDS011;920;48.944;9.148;2023-02-24T01:37:54;13.90;;;11.70;;
1839;SDS011;920;48.944;9.148;2023-02-24T01:40:23;17.90;;;12.97;;
1839;SDS011;920;48.944;9.148;2023-02-24T01:42:53;16.30;;;12.00;;
1839;SDS011;920;48.944;9.148;2023-02-24T01:45:36;15.57;;;12.23;;
1839;SDS011;920;48.944;9.148;2023-02-24T01:48:08;15.87;;;12.90;;
1839;SDS011;920;48.944;9.148;2023-02-24T01:50:36;14.90;;;12.37;;
1839;SDS011;920;48.944;9.148;2023-02-24T01:53:11;20.33;;;13.10;;
1839;SDS011;920;48.944;9.148;2023-02-24T01:55:42;14.50;;;11.63;;
1839;SDS011;920;48.944;9.148;2023-02-24T01:58:19;17.27;;;12.73;;
1839;SDS011;920;48.944;9.148;2023-02-24T02:00:48;13.70;;;10.63;;
1839;SDS011;920;48.944;9.148;2023-02-24T02:03:21;13.83;;;11.80;;
1839;SDS011;920;48.944;9.148;2023-02-24T02:05:55;18.07;;;12.47;;
1839;SDS011;920;48.944;9.148;2023-02-24T02:08:33;14.50;;;11.57;;
1839;SDS011;920;48.944;9.148;2023-02-24T02:11:02;16.80;;;12.63;;
1839;SDS011;920;48.944;9.148;2023-02-24T02:13:41;15.17;;;12.37;;
1839;SDS011;920;48.944;9.148;2023-02-24T02:19:23;16.73;;;13.13;;
1839;SDS011;920;48.944;9.148;2023-02-24T02:22:04;16.13;;;12.33;;
1839;SDS011;920;48.944;9.148;2023-02-24T02:24:50;15.70;;;13.10;;
1839;SDS011;920;48.944;9.148;2023-02-24T02:27:33;15.10;;;12.30;;
1839;SDS011;920;48.944;9.148;2023-02-24T02:30:29;15.27;;;11.90;;
1839;SDS011;920;48.944;9.148;2023-02-24T02:33:24;16.30;;;11.80;;
1839;SDS011;920;48.944;9.148;2023-02-24T02:36:24;17.33;;;12.50;;
1839;SDS011;920;48.944;9.148;2023-02-24T02:38:54;14.10;;;11.63;;
1839;SDS011;920;48.944;9.148;2023-02-24T02:41:29;15.53;;;12.70;;
1839;SDS011;920;48.944;9.148;2023-02-24T02:44:02;17.67;;;13.30;;
1839;SDS011;920;48.944;9.148;2023-02-24T02:46:33;18.23;;;11.80;;
1839;SDS011;920;48.944;9.148;2023-02-24T02:49:16;18.53;;;12.80;;
1839;SDS011;920;48.944;9.148;2023-02-24T02:51:57;14.53;;;12.00;;
1839;SDS011;920;48.944;9.148;2023-02-24T02:54:31;14.90;;;12.27;;
1839;SDS011;920;48.944;9.148;2023-02-24T02:57:08;15.93;;;12.47;;
1839;SDS011;920;48.944;9.148;2023-02-24T02:59:44;13.47;;;10.43;;
1839;SDS011;920;48.944;9.148;2023-02-24T03:02:17;13.40;;;10.60;;
1839;SDS011;920;48.944;9.148;2023-02-24T03:04:57;16.00;;;12.70;;
1839;SDS011;920;48.944;9.148;2023-02-24T03:07:40;17.43;;;12.57;;
1839;SDS011;920;48.944;9.148;2023-02-24T03:10:14;14.87;;;13.23;;
1839;SDS011;920;48.944;9.148;2023-02-24T03:12:53;15.53;;;12.80;;
1839;SDS011;920;48.944;9.148;2023-02-24T03:15:24;16.77;;;13.80;;
1839;SDS011;920;48.944;9.148;2023-02-24T03:18:02;20.90;;;14.80;;
1839;SDS011;920;48.944;9.148;2023-02-24T03:20:40;18.00;;;15.60;;
1839;SDS011;920;48.944;9.148;2023-02-24T03:23:12;18.93;;;15.60;;
1839;SDS011;920;48.944;9.148;2023-02-24T03:25:52;18.63;;;14.73;;
1839;SDS011;920;48.944;9.148;2023-02-24T03:28:32;20.10;;;15.27;;
1839;SDS011;920;48.944;9.148;2023-02-24T03:31:05;20.63;;;16.20;;
1839;SDS011;920;48.944;9.148;2023-02-24T03:33:38;21.20;;;16.50;;
1839;SDS011;920;48.944;9.148;2023-02-24T03:36:13;20.10;;;15.90;;
1839;SDS011;920;48.944;9.148;2023-02-24T03:38:42;19.80;;;16.17;;
1839;SDS011;920;48.944;9.148;2023-02-24T03:41:14;21.10;;;17.27;;
1839;SDS011;920;48.944;9.148;2023-02-24T03:43:45;22.50;;;16.97;;
1839;SDS011;920;48.944;9.148;2023-02-24T03:46:16;19.30;;;16.07;;
1839;SDS011;920;48.944;9.148;2023-02-24T03:48:47;20.57;;;16.83;;
1839;SDS011;920;48.944;9.148;2023-02-24T03:51:40;20.43;;;16.40;;
1839;SDS011;920;48.944;9.148;2023-02-24T03:54:21;20.23;;;16.03;;
1839;SDS011;920;48.944;9.148;2023-02-24T03:57:01;18.30;;;14.10;;
1839;SDS011;920;48.944;9.148;2023-02-24T03:59:44;21.27;;;15.80;;
1839;SDS011;920;48.944;9.148;2023-02-24T04:02:24;20.40;;;16.07;;
1839;SDS011;920;48.944;9.148;2023-02-24T04:05:06;23.37;;;18.03;;
1839;SDS011;920;48.944;9.148;2023-02-24T04:07:52;21.27;;;16.90;;
1839;SDS011;920;48.944;9.148;2023-02-24T04:10:23;21.60;;;17.50;;
1839;SDS011;920;48.944;9.148;2023-02-24T04:12:58;24.10;;;17.47;;
1839;SDS011;920;48.944;9.148;2023-02-24T04:15:31;18.90;;;15.80;;
1839;SDS011;920;48.944;9.148;2023-02-24T04:18:06;23.00;;;18.13;;
1839;SDS011;920;48.944;9.148;2023-02-24T04:20:40;25.10;;;18.63;;
1839;SDS011;920;48.944;9.148;2023-02-24T04:23:11;26.30;;;19.50;;
1839;SDS011;920;48.944;9.148;2023-02-24T04:25:47;25.80;;;18.97;;
1839;SDS011;920;48.944;9.148;2023-02-24T04:28:23;23.33;;;18.60;;
1839;SDS011;920;48.944;9.148;2023-02-24T04:30:56;23.60;;;18.10;;
1839;SDS011;920;48.944;9.148;2023-02-24T04:33:34;21.80;;;17.17;;
1839;SDS011;920;48.944;9.148;2023-02-24T04:36:03;21.60;;;17.00;;
1839;SDS011;920;48.944;9.148;2023-02-24T04:38:39;23.27;;;18.00;;
1839;SDS011;920;48.944;9.148;2023-02-24T04:41:06;23.30;;;16.90;;
1839;SDS011;920;48.944;9.148;2023-02-24T04:43:32;21.83;;;16.83;;
1839;SDS011;920;48.944;9.148;2023-02-24T04:46:05;27.80;;;18.30;;
1839;SDS011;920;48.944;9.148;2023-02-24T04:48:32;24.70;;;19.07;;
1839;SDS011;920;48.944;9.148;2023-02-24T04:50:59;23.03;;;18.93;;
1839;SDS011;920;48.944;9.148;2023-02-24T04:53:30;26.73;;;19.33;;
1839;SDS011;920;48.944;9.148;2023-02-24T04:56:18;23.70;;;18.60;;
1839;SDS011;920;48.944;9.148;2023-02-24T04:58:50;25.87;;;19.20;;
1839;SDS011;920;48.944;9.148;2023-02-24T05:01:19;26.83;;;19.20;;
1839;SDS011;920;48.944;9.148;2023-02-24T05:03:51;23.67;;;18.57;;
1839;SDS011;920;48.944;9.148;2023-02-24T05:06:20;27.10;;;20.50;;
1839;SDS011;920;48.944;9.148;2023-02-24T05:08:53;25.07;;;19.37;;
1839;SDS011;920;48.944;9.148;2023-02-24T05:11:23;27.67;;;20.83;;
1839;SDS011;920;48.944;9.148;2023-02-24T05:13:51;29.73;;;21.10;;
1839;SDS011;920;48.944;9.148;2023-02-24T05:16:21;27.73;;;20.00;;
1839;SDS011;920;48.944;9.148;2023-02-24T05:18:53;25.63;;;18.70;;
1839;SDS011;920;48.944;9.148;2023-02-24T05:21:33;28.30;;;21.60;;
1839;SDS011;920;48.944;9.148;2023-02-24T05:24:11;25.47;;;20.00;;
1839;SDS011;920;48.944;9.148;2023-02-24T05:26:47;29.03;;;20.63;;
1839;SDS011;920;48.944;9.148;2023-02-24T05:29:19;31.40;;;22.17;;
1839;SDS011;920;48.944;9.148;2023-02-24T05:31:49;30.03;;;21.43;;
1839;SDS011;920;48.944;9.148;2023-02-24T05:34:18;32.93;;;22.10;;
1839;SDS011;920;48.944;9.148;2023-02-24T05:36:49;28.53;;;21.10;;
1839;SDS011;920;48.944;9.148;2023-02-24T05:39:17;32.70;;;22.03;;
1839;SDS011;920;48.944;9.148;2023-02-24T05:41:46;32.73;;;20.80;;
1839;SDS011;920;48.944;9.148;2023-02-24T05:44:14;31.80;;;21.80;;
1839;SDS011;920;48.944;9.148;2023-02-24T05:46:47;27.57;;;18.30;;
1839;SDS011;920;48.944;9.148;2023-02-24T05:49:15;29.60;;;20.50;;
1839;SDS011;920;48.944;9.148;2023-02-24T05:51:48;29.30;;;20.07;;
1839;SDS011;920;48.944;9.148;2023-02-24T05:54:20;32.53;;;21.40;;
1839;SDS011;920;48.944;9.148;2023-02-24T05:56:51;32.73;;;21.00;;
1839;SDS011;920;48.944;9.148;2023-02-24T05:59:21;29.27;;;20.17;;
1839;SDS011;920;48.944;9.148;2023-02-24T06:02:00;25.80;;;19.50;;
1839;SDS011;920;48.944;9.148;2023-02-24T06:04:32;29.23;;;20.80;;
1839;SDS011;920;48.944;9.148;2023-02-24T06:07:13;31.83;;;19.03;;
1839;SDS011;920;48.944;9.148;2023-02-24T06:09:48;30.30;;;20.57;;
1839;SDS011;920;48.944;9.148;2023-02-24T06:12:25;30.00;;;19.90;;
1839;SDS011;920;48.944;9.148;2023-02-24T06:14:58;31.00;;;20.20;;
1839;SDS011;920;48.944;9.148;2023-02-24T06:17:26;27.53;;;19.40;;
1839;SDS011;920;48.944;9.148;2023-02-24T06:20:08;30.07;;;19.20;;
1839;SDS011;920;48.944;9.148;2023-02-24T06:22:39;27.53;;;18.30;;
1839;SDS011;920;48.944;9.148;2023-02-24T06:25:13;32.20;;;21.00;;
1839;SDS011;920;48.944;9.148;2023-02-24T06:27:44;31.50;;;20.50;;
1839;SDS011;920;48.944;9.148;2023-02-24T06:30:17;28.53;;;19.70;;
1839;SDS011;920;48.944;9.148;2023-02-24T06:32:48;37.97;;;24.03;;
1839;SDS011;920;48.944;9.148;2023-02-24T06:35:22;34.10;;;21.20;;
1839;SDS011;920;48.944;9.148;2023-02-24T06:37:48;31.47;;;21.20;;
1839;SDS011;920;48.944;9.148;2023-02-24T06:40:17;32.50;;;21.80;;
1839;SDS011;920;48.944;9.148;2023-02-24T06:42:49;28.63;;;18.57;;
1839;SDS011;920;48.944;9.148;2023-02-24T06:45:22;31.70;;;18.80;;
1839;SDS011;920;48.944;9.148;2023-02-24T06:47:55;29.53;;;19.40;;
1839;SDS011;920;48.944;9.148;2023-02-24T06:50:23;30.83;;;19.03;;
1839;SDS011;920;48.944;9.148;2023-02-24T06:52:53;28.47;;;17.00;;
1839;SDS011;920;48.944;9.148;2023-02-24T06:55:22;28.97;;;19.00;;
1839;SDS011;920;48.944;9.148;2023-02-24T06:57:54;27.00;;;18.07;;
1839;SDS011;920;48.944;9.148;2023-02-24T07:00:25;27.97;;;17.93;;
1839;SDS011;920;48.944;9.148;2023-02-24T07:03:05;28.90;;;18.00;;
1839;SDS011;920;48.944;9.148;2023-02-24T07:05:41;30.27;;;16.87;;
1839;SDS011;920;48.944;9.148;2023-02-24T07:08:22;28.43;;;17.90;;
1839;SDS011;920;48.944;9.148;2023-02-24T07:10:52;27.30;;;17.87;;
1839;SDS011;920;48.944;9.148;2023-02-24T07:13:21;29.67;;;18.87;;
1839;SDS011;920;48.944;9.148;2023-02-24T07:15:49;29.10;;;18.60;;
1839;SDS011;920;48.944;9.148;2023-02-24T07:18:16;29.37;;;18.30;;
1839;SDS011;920;48.944;9.148;2023-02-24T07:20:47;27.77;;;17.20;;
1839;SDS011;920;48.944;9.148;2023-02-24T07:23:15;26.93;;;17.90;;
1839;SDS011;920;48.944;9.148;2023-02-24T07:25:45;27.47;;;17.70;;
1839;SDS011;920;48.944;9.148;2023-02-24T07:28:12;31.87;;;20.30;;
1839;SDS011;920;48.944;9.148;2023-02-24T07:30:47;28.50;;;17.70;;
1839;SDS011;920;48.944;9.148;2023-02-24T07:33:14;27.70;;;17.87;;
1839;SDS011;920;48.944;9.148;2023-02-24T07:35:47;29.67;;;19.10;;
1839;SDS011;920;48.944;9.148;2023-02-24T07:38:21;30.03;;;18.03;;
1839;SDS011;920;48.944;9.148;2023-02-24T07:40:48;26.27;;;17.43;;
1839;SDS011;920;48.944;9.148;2023-02-24T07:43:15;27.30;;;17.70;;
1839;SDS011;920;48.944;9.148;2023-02-24T07:45:44;28.40;;;18.43;;
1839;SDS011;920;48.944;9.148;2023-02-24T07:48:15;29.00;;;18.50;;
1839;SDS011;920;48.944;9.148;2023-02-24T07:50:46;27.60;;;17.63;;
1839;SDS011;920;48.944;9.148;2023-02-24T07:53:22;30.43;;;17.53;;
1839;SDS011;920;48.944;9.148;2023-02-24T07:55:48;27.07;;;17.47;;
1839;SDS011;920;48.944;9.148;2023-02-24T07:58:17;30.23;;;17.30;;
1839;SDS011;920;48.944;9.148;2023-02-24T08:00:51;29.33;;;17.47;;
1839;SDS011;920;48.944;9.148;2023-02-24T08:03:33;24.17;;;16.27;;
1839;SDS011;920;48.944;9.148;2023-02-24T08:06:09;27.73;;;17.90;;
1839;SDS011;920;48.944;9.148;2023-02-24T08:08:42;27.03;;;17.20;;
1839;SDS011;920;48.944;9.148;2023-02-24T08:11:28;32.23;;;18.10;;
1839;SDS011;920;48.944;9.148;2023-02-24T08:13:59;29.87;;;17.87;;
1839;SDS011;920;48.944;9.148;2023-02-24T08:16:27;27.50;;;18.40;;
1839;SDS011;920;48.944;9.148;2023-02-24T08:19:08;28.83;;;18.33;;
1839;SDS011;920;48.944;9.148;2023-02-24T08:21:44;32.30;;;20.03;;
1839;SDS011;920;48.944;9.148;2023-02-24T08:24:15;31.23;;;20.00;;
1839;SDS011;920;48.944;9.148;2023-02-24T08:27:00;35.23;;;20.97;;
1839;SDS011;920;48.944;9.148;2023-02-24T08:29:29;35.30;;;19.73;;
1839;SDS011;920;48.944;9.148;2023-02-24T08:31:56;32.10;;;19.90;;
1839;SDS011;920;48.944;9.148;2023-02-24T08:34:26;34.10;;;20.50;;
1839;SDS011;920;48.944;9.148;2023-02-24T08:36:56;32.77;;;20.10;;
1839;SDS011;920;48.944;9.148;2023-02-24T08:39:23;33.57;;;19.67;;
1839;SDS011;920;48.944;9.148;2023-02-24T08:41:54;34.97;;;19.57;;
1839;SDS011;920;48.944;9.148;2023-02-24T08:44:22;32.97;;;20.90;;
1839;SDS011;920;48.944;9.148;2023-02-24T08:46:51;32.83;;;18.43;;
1839;SDS011;920;48.944;9.148;2023-02-24T08:49:19;34.53;;;18.87;;
1839;SDS011;920;48.944;9.148;2023-02-24T08:51:53;33.33;;;19.40;;
1839;SDS011;920;48.944;9.148;2023-02-24T08:54:20;34.53;;;19.40;;
1839;SDS011;920;48.944;9.148;2023-02-24T08:56:52;31.53;;;19.20;;
1839;SDS011;920;48.944;9.148;2023-02-24T08:59:21;35.33;;;20.07;;
1839;SDS011;920;48.944;9.148;2023-02-24T09:02:03;34.53;;;20.60;;
1839;SDS011;920;48.944;9.148;2023-02-24T09:04:49;38.90;;;20.70;;
1839;SDS011;920;48.944;9.148;2023-02-24T09:07:21;39.00;;;22.00;;
1839;SDS011;920;48.944;9.148;2023-02-24T09:09:50;34.83;;;19.50;;
1839;SDS011;920;48.944;9.148;2023-02-24T09:12:23;36.73;;;20.10;;
1839;SDS011;920;48.944;9.148;2023-02-24T09:14:53;31.80;;;18.57;;
1839;SDS011;920;48.944;9.148;2023-02-24T09:17:24;34.47;;;19.30;;
1839;SDS011;920;48.944;9.148;2023-02-24T09:20:16;35.27;;;18.47;;
1839;SDS011;920;48.944;9.148;2023-02-24T09:23:17;39.70;;;20.30;;
1839;SDS011;920;48.944;9.148;2023-02-24T09:25:54;32.63;;;19.00;;
1839;SDS011;920;48.944;9.148;2023-02-24T09:28:25;36.33;;;20.00;;
1839;SDS011;920;48.944;9.148;2023-02-24T09:31:02;39.23;;;21.43;;
1839;SDS011;920;48.944;9.148;2023-02-24T09:33:30;36.37;;;19.77;;
1839;SDS011;920;48.944;9.148;2023-02-24T09:36:03;29.33;;;17.90;;
1839;SDS011;920;48.944;9.148;2023-02-24T09:38:46;36.10;;;18.70;;
1839;SDS011;920;48.944;9.148;2023-02-24T09:41:37;33.67;;;18.83;;
1839;SDS011;920;48.944;9.148;2023-02-24T09:44:24;34.13;;;18.90;;
1839;SDS011;920;48.944;9.148;2023-02-24T09:46:55;37.27;;;21.87;;
1839;SDS011;920;48.944;9.148;2023-02-24T09:49:25;36.10;;;19.83;;
1839;SDS011;920;48.944;9.148;2023-02-24T09:52:06;40.37;;;21.27;;
1839;SDS011;920;48.944;9.148;2023-02-24T09:54:42;42.40;;;22.13;;
1839;SDS011;920;48.944;9.148;2023-02-24T09:57:40;39.90;;;21.53;;
1839;SDS011;920;48.944;9.148;2023-02-24T10:00:35;40.37;;;20.93;;
1839;SDS011;920;48.944;9.148;2023-02-24T10:03:10;40.73;;;21.23;;
1839;SDS011;920;48.944;9.148;2023-02-24T10:05:47;36.97;;;19.50;;
1839;SDS011;920;48.944;9.148;2023-02-24T10:08:25;35.10;;;19.80;;
1839;SDS011;920;48.944;9.148;2023-02-24T10:10:58;45.70;;;21.70;;
1839;SDS011;920;48.944;9.148;2023-02-24T10:13:39;35.73;;;20.03;;
1839;SDS011;920;48.944;9.148;2023-02-24T10:16:11;36.97;;;20.17;;
1839;SDS011;920;48.944;9.148;2023-02-24T10:18:48;42.40;;;20.77;;
1839;SDS011;920;48.944;9.148;2023-02-24T10:21:26;41.93;;;20.47;;
1839;SDS011;920;48.944;9.148;2023-02-24T10:24:04;41.07;;;21.80;;
1839;SDS011;920;48.944;9.148;2023-02-24T10:26:43;37.43;;;20.47;;
1839;SDS011;920;48.944;9.148;2023-02-24T10:29:20;34.23;;;19.70;;
1839;SDS011;920;48.944;9.148;2023-02-24T10:32:03;37.50;;;19.87;;
1839;SDS011;920;48.944;9.148;2023-02-24T10:34:41;39.07;;;20.70;;
1839;SDS011;920;48.944;9.148;2023-02-24T10:37:12;38.03;;;20.47;;
1839;SDS011;920;48.944;9.148;2023-02-24T10:39:46;39.87;;;21.47;;
1839;SDS011;920;48.944;9.148;2023-02-24T10:42:22;32.87;;;18.30;;
1839;SDS011;920;48.944;9.148;2023-02-24T10:45:03;37.17;;;20.30;;
1839;SDS011;920;48.944;9.148;2023-02-24T10:47:36;38.17;;;20.17;;
1839;SDS011;920;48.944;9.148;2023-02-24T10:50:17;35.90;;;18.67;;
1839;SDS011;920;48.944;9.148;2023-02-24T10:52:46;40.67;;;21.00;;
1839;SDS011;920;48.944;9.148;2023-02-24T10:55:39;35.13;;;19.13;;
1839;SDS011;920;48.944;9.148;2023-02-24T10:58:40;41.47;;;21.53;;
1839;SDS011;920;48.944;9.148;2023-02-24T11:01:14;39.17;;;19.57;;
1839;SDS011;920;48.944;9.148;2023-02-24T11:03:54;33.83;;;19.20;;
1839;SDS011;920;48.944;9.148;2023-02-24T11:06:49;31.80;;;17.80;;
1839;SDS011;920;48.944;9.148;2023-02-24T11:09:25;33.00;;;17.90;;
1839;SDS011;920;48.944;9.148;2023-02-24T11:12:01;38.67;;;19.57;;
1839;SDS011;920;48.944;9.148;2023-02-24T11:14:54;35.77;;;20.10;;
1839;SDS011;920;48.944;9.148;2023-02-24T11:17:46;36.97;;;19.70;;
1839;SDS011;920;48.944;9.148;2023-02-24T11:20:18;36.67;;;19.97;;
1839;SDS011;920;48.944;9.148;2023-02-24T11:22:49;39.63;;;19.33;;
1839;SDS011;920;48.944;9.148;2023-02-24T11:25:21;33.17;;;18.87;;
1839;SDS011;920;48.944;9.148;2023-02-24T11:27:55;35.47;;;20.27;;
1839;SDS011;920;48.944;9.148;2023-02-24T11:30:32;36.03;;;20.50;;
1839;SDS011;920;48.944;9.148;2023-02-24T11:33:14;38.80;;;20.73;;
1839;SDS011;920;48.944;9.148;2023-02-24T11:35:47;36.13;;;20.33;;
1839;SDS011;920;48.944;9.148;2023-02-24T11:38:24;36.83;;;19.03;;
1839;SDS011;920;48.944;9.148;2023-02-24T11:41:01;36.87;;;18.10;;
1839;SDS011;920;48.944;9.148;2023-02-24T11:43:33;34.87;;;18.77;;
1839;SDS011;920;48.944;9.148;2023-02-24T11:46:09;32.63;;;19.17;;
1839;SDS011;920;48.944;9.148;2023-02-24T11:48:46;34.40;;;19.20;;
1839;SDS011;920;48.944;9.148;2023-02-24T11:51:26;35.20;;;18.80;;
1839;SDS011;920;48.944;9.148;2023-02-24T11:53:55;34.43;;;19.07;;
1839;SDS011;920;48.944;9.148;2023-02-24T11:56:27;34.97;;;19.87;;
1839;SDS011;920;48.944;9.148;2023-02-24T11:58:57;36.20;;;18.83;;
1839;SDS011;920;48.944;9.148;2023-02-24T12:01:30;32.20;;;19.30;;
1839;SDS011;920;48.944;9.148;2023-02-24T12:04:05;34.93;;;19.20;;
1839;SDS011;920;48.944;9.148;2023-02-24T12:06:41;35.90;;;18.77;;
1839;SDS011;920;48.944;9.148;2023-02-24T12:09:14;31.37;;;17.63;;
1839;SDS011;920;48.944;9.148;2023-02-24T12:11:51;31.93;;;18.20;;
1839;SDS011;920;48.944;9.148;2023-02-24T12:14:32;33.17;;;19.30;;
1839;SDS011;920;48.944;9.148;2023-02-24T12:17:07;37.23;;;19.03;;
1839;SDS011;920;48.944;9.148;2023-02-24T12:19:43;34.93;;;18.53;;
1839;SDS011;920;48.944;9.148;2023-02-24T12:22:33;32.73;;;18.57;;
1839;SDS011;920;48.944;9.148;2023-02-24T12:25:11;31.73;;;18.93;;
1839;SDS011;920;48.944;9.148;2023-02-24T12:27:48;31.17;;;18.20;;
1839;SDS011;920;48.944;9.148;2023-02-24T12:33:43;27.83;;;17.63;;
1839;SDS011;920;48.944;9.148;2023-02-24T12:36:19;32.57;;;18.43;;
1839;SDS011;920;48.944;9.148;2023-02-24T12:38:57;30.67;;;17.20;;
1839;SDS011;920;48.944;9.148;2023-02-24T12:44:29;33.20;;;19.30;;
1839;SDS011;920;48.944;9.148;2023-02-24T12:47:04;29.90;;;17.10;;
1839;SDS011;920;48.944;9.148;2023-02-24T12:50:01;35.17;;;18.80;;
1839;SDS011;920;48.944;9.148;2023-02-24T12:52:33;31.67;;;17.93;;
1839;SDS011;920;48.944;9.148;2023-02-24T12:55:13;31.33;;;19.17;;
1839;SDS011;920;48.944;9.148;2023-02-24T12:57:57;29.40;;;17.47;;
1839;SDS011;920;48.944;9.148;2023-02-24T13:00:36;29.17;;;17.00;;
1839;SDS011;920;48.944;9.148;2023-02-24T13:03:25;25.87;;;16.67;;
1839;SDS011;920;48.944;9.148;2023-02-24T13:06:00;25.30;;;15.07;;
1839;SDS011;920;48.944;9.148;2023-02-24T13:08:43;34.77;;;17.60;;
1839;SDS011;920;48.944;9.148;2023-02-24T13:11:21;29.10;;;16.87;;
1839;SDS011;920;48.944;9.148;2023-02-24T13:14:03;26.17;;;16.13;;
1839;SDS011;920;48.944;9.148;2023-02-24T13:17:01;30.87;;;17.57;;
1839;SDS011;920;48.944;9.148;2023-02-24T13:19:43;25.20;;;16.47;;
1839;SDS011;920;48.944;9.148;2023-02-24T13:22:19;25.90;;;16.17;;
1839;SDS011;920;48.944;9.148;2023-02-24T13:25:02;26.27;;;15.03;;
1839;SDS011;920;48.944;9.148;2023-02-24T13:27:38;28.17;;;16.10;;
1839;SDS011;920;48.944;9.148;2023-02-24T13:30:25;26.10;;;14.30;;
1839;SDS011;920;48.944;9.148;2023-02-24T13:33:01;22.40;;;14.17;;
1839;SDS011;920;48.944;9.148;2023-02-24T13:35:35;24.40;;;14.77;;
1839;SDS011;920;48.944;9.148;2023-02-24T13:38:20;20.80;;;14.13;;
1839;SDS011;920;48.944;9.148;2023-02-24T13:40:53;28.90;;;15.20;;
1839;SDS011;920;48.944;9.148;2023-02-24T13:43:32;25.97;;;14.87;;
1839;SDS011;920;48.944;9.148;2023-02-24T13:46:00;24.63;;;14.17;;
1839;SDS011;920;48.944;9.148;2023-02-24T13:51:29;22.50;;;14.67;;
1839;SDS011;920;48.944;9.148;2023-02-24T13:54:15;21.50;;;13.20;;
1839;SDS011;920;48.944;9.148;2023-02-24T13:56:49;27.53;;;15.10;;
1839;SDS011;920;48.944;9.148;2023-02-24T14:02:18;21.67;;;14.77;;
1839;SDS011;920;48.944;9.148;2023-02-24T14:04:53;23.97;;;13.93;;
1839;SDS011;920;48.944;9.148;2023-02-24T14:07:22;24.90;;;15.23;;
1839;SDS011;920;48.944;9.148;2023-02-24T14:09:55;24.63;;;14.93;;
1839;SDS011;920;48.944;9.148;2023-02-24T14:12:23;28.00;;;16.27;;
1839;SDS011;920;48.944;9.148;2023-02-24T14:14:56;23.80;;;14.87;;
1839;SDS011;920;48.944;9.148;2023-02-24T14:17:29;25.97;;;14.37;;
1839;SDS011;920;48.944;9.148;2023-02-24T14:20:13;25.77;;;16.00;;
1839;SDS011;920;48.944;9.148;2023-02-24T14:22:52;20.83;;;13.20;;
1839;SDS011;920;48.944;9.148;2023-02-24T14:25:25;24.77;;;14.23;;
1839;SDS011;920;48.944;9.148;2023-02-24T14:28:01;25.20;;;14.13;;
1839;SDS011;920;48.944;9.148;2023-02-24T14:30:36;23.77;;;14.67;;
1839;SDS011;920;48.944;9.148;2023-02-24T14:33:05;22.47;;;14.60;;
1839;SDS011;920;48.944;9.148;2023-02-24T14:35:40;24.03;;;15.00;;
1839;SDS011;920;48.944;9.148;2023-02-24T14:38:17;20.97;;;12.83;;
1839;SDS011;920;48.944;9.148;2023-02-24T14:40:57;21.27;;;13.83;;
1839;SDS011;920;48.944;9.148;2023-02-24T14:43:26;20.93;;;13.67;;
1839;SDS011;920;48.944;9.148;2023-02-24T14:46:02;18.53;;;13.20;;
1839;SDS011;920;48.944;9.148;2023-02-24T14:48:32;22.50;;;14.00;;
1839;SDS011;920;48.944;9.148;2023-02-24T14:51:22;20.90;;;14.00;;
1839;SDS011;920;48.944;9.148;2023-02-24T14:53:51;19.23;;;14.13;;
1839;SDS011;920;48.944;9.148;2023-02-24T14:56:39;21.47;;;14.50;;
1839;SDS011;920;48.944;9.148;2023-02-24T14:59:14;28.27;;;18.87;;
1839;SDS011;920;48.944;9.148;2023-02-24T15:01:48;23.50;;;17.50;;
1839;SDS011;920;48.944;9.148;2023-02-24T15:04:25;23.30;;;16.37;;
1839;SDS011;920;48.944;9.148;2023-02-24T15:07:06;22.03;;;17.53;;
1839;SDS011;920;48.944;9.148;2023-02-24T15:09:43;25.43;;;18.17;;
1839;SDS011;920;48.944;9.148;2023-02-24T15:12:17;49.90;;;34.10;;
1839;SDS011;920;48.944;9.148;2023-02-24T15:17:19;38.27;;;24.30;;
1839;SDS011;920;48.944;9.148;2023-02-24T15:19:46;37.27;;;23.53;;
1839;SDS011;920;48.944;9.148;2023-02-24T15:22:19;29.30;;;17.43;;
1839;SDS011;920;48.944;9.148;2023-02-24T15:24:48;23.00;;;15.43;;
1839;SDS011;920;48.944;9.148;2023-02-24T15:27:21;32.07;;;23.73;;
1839;SDS011;920;48.944;9.148;2023-02-24T15:29:59;28.53;;;21.90;;
1839;SDS011;920;48.944;9.148;2023-02-24T15:32:30;21.30;;;16.20;;
1839;SDS011;920;48.944;9.148;2023-02-24T15:35:01;22.50;;;15.67;;
1839;SDS011;920;48.944;9.148;2023-02-24T15:37:32;20.50;;;14.80;;
1839;SDS011;920;48.944;9.148;2023-02-24T15:40:03;20.80;;;13.97;;
1839;SDS011;920;48.944;9.148;2023-02-24T15:42:36;28.67;;;18.60;;
1839;SDS011;920;48.944;9.148;2023-02-24T15:45:21;24.10;;;17.73;;
1839;SDS011;920;48.944;9.148;2023-02-24T15:47:56;20.63;;;14.10;;
1839;SDS011;920;48.944;9.148;2023-02-24T15:50:27;19.60;;;14.30;;
1839;SDS011;920;48.944;9.148;2023-02-24T15:52:55;19.37;;;14.23;;
1839;SDS011;920;48.944;9.148;2023-02-24T15:55:29;18.87;;;13.70;;
1839;SDS011;920;48.944;9.148;2023-02-24T15:58:01;17.47;;;13.10;;
1839;SDS011;920;48.944;9.148;2023-02-24T16:00:37;19.33;;;12.87;;
1839;SDS011;920;48.944;9.148;2023-02-24T16:03:07;18.83;;;12.43;;
1839;SDS011;920;48.944;9.148;2023-02-24T16:05:46;18.30;;;12.23;;